Time;durP1;ratioP1;P1;durP2;ratioP2;P2;SDS_P1;SDS_P2;PMS_P1;PMS_P2;Temp;Humidity;BMP_temperature;BMP_pressure;BME280_temperature;BME280_humidity;BME280_pressure;Samples;Min_cycle;Max_cycle;Signal;HPM_P1;HPM_P2
2022/02/06 00:00:53;;;;;;;8.13;4.63;;;-0.10;97.50;;;;;;5010640;28;20418;-58
2022/02/06 00:03:20;;;;;;;7.10;4.10;;;-0.20;97.60;;;;;;5010773;28;20171;-59
2022/02/06 00:05:50;;;;;;;7.90;4.60;;;-0.20;98.00;;;;;;5009583;28;20234;-57
2022/02/06 00:08:16;;;;;;;7.70;4.43;;;-0.20;98.30;;;;;;5010525;28;20414;-62
2022/02/06 00:10:42;;;;;;;13.83;5.33;;;-0.20;98.30;;;;;;5018490;28;20429;-58
2022/02/06 00:13:08;;;;;;;8.00;4.17;;;-0.10;98.60;;;;;;5013871;28;20471;-60
2022/02/06 00:15:33;;;;;;;7.77;4.57;;;-0.10;98.60;;;;;;5014825;28;20442;-61
2022/02/06 00:17:59;;;;;;;7.13;4.37;;;-0.20;98.70;;;;;;5008967;28;20176;-59
2022/02/06 00:20:31;;;;;;;10.33;4.60;;;-0.20;99.00;;;;;;5012553;28;20173;-58
2022/02/06 00:23:01;;;;;;;12.10;4.93;;;-0.20;99.20;;;;;;5006559;28;20190;-60
2022/02/06 00:25:53;;;;;;;12.07;4.83;;;-0.20;99.20;;;;;;4995014;28;20533;-61
2022/02/06 00:30:55;;;;;;;9.27;4.40;;;-0.20;99.90;;;;;;5015058;28;20430;-58
2022/02/06 00:33:36;;;;;;;8.73;4.20;;;-0.20;99.90;;;;;;5025272;28;20426;-56
2022/02/06 00:41:15;;;;;;;16.57;3.70;;;-0.20;99.90;;;;;;5006987;28;20517;-64
2022/02/06 00:43:44;;;;;;;13.70;3.63;;;-0.20;99.90;;;;;;5006252;28;20420;-58
2022/02/06 00:46:12;;;;;;;8.83;4.10;;;-0.20;99.90;;;;;;5012212;28;20194;-57
2022/02/06 00:48:42;;;;;;;15.37;4.23;;;-0.20;99.90;;;;;;5027301;28;20887;-60
2022/02/06 00:51:20;;;;;;;12.80;4.33;;;-0.20;99.90;;;;;;5007926;28;21030;-58
2022/02/06 00:53:46;;;;;;;9.33;3.87;;;-0.20;99.90;;;;;;5010398;28;20438;-62
2022/02/06 00:56:12;;;;;;;10.50;4.80;;;-0.20;99.90;;;;;;5002487;28;20990;-58
2022/02/06 00:58:38;;;;;;;10.37;4.20;;;-0.20;99.90;;;;;;5011079;28;20201;-60
2022/02/06 01:01:04;;;;;;;6.70;4.07;;;-0.20;99.90;;;;;;5005042;28;20239;-62
2022/02/06 01:03:31;;;;;;;10.30;4.30;;;-0.20;99.90;;;;;;4990850;28;20168;-61
2022/02/06 01:05:57;;;;;;;9.37;4.60;;;-0.20;99.90;;;;;;5016289;28;20441;-61
2022/02/06 01:08:22;;;;;;;6.83;4.40;;;-0.10;99.90;;;;;;5006119;28;20446;-59
2022/02/06 01:10:49;;;;;;;7.60;3.53;;;-0.20;99.90;;;;;;5002757;28;20179;-60
2022/02/06 01:13:24;;;;;;;9.37;3.60;;;-0.10;99.90;;;;;;5007367;28;20210;-59
2022/02/06 01:15:59;;;;;;;7.60;3.37;;;-0.10;99.90;;;;;;5003517;28;20434;-60
2022/02/06 01:18:32;;;;;;;6.73;3.87;;;-0.10;99.90;;;;;;5017755;28;20414;-57
2022/02/06 01:21:16;;;;;;;5.43;3.33;;;0.00;99.90;;;;;;5002784;28;20437;-57
2022/02/06 01:26:18;;;;;;;5.33;3.30;;;0.00;99.90;;;;;;5008224;28;20495;-56
2022/02/06 01:28:50;;;;;;;11.90;3.60;;;0.00;99.90;;;;;;5008264;28;20189;-57
2022/02/06 01:33:52;;;;;;;7.57;3.90;;;0.00;99.90;;;;;;5015815;28;20953;-54
2022/02/06 01:41:40;;;;;;;12.50;4.00;;;0.00;99.90;;;;;;5004628;28;20684;-59
2022/02/06 01:44:13;;;;;;;7.10;3.50;;;0.00;99.90;;;;;;5002664;28;20498;-61
2022/02/06 02:00:39;;;;;;;6.57;3.53;;;-0.10;99.90;;;;;;4999244;28;20838;-59
2022/02/06 02:00:54;;;;;;;6.03;3.27;;;-0.20;99.90;;;;;;5005127;28;20422;-63
2022/02/06 02:14:13;;;;;;;7.90;3.40;;;-0.20;99.90;;;;;;4984786;28;20500;-58
2022/02/06 02:48:10;;;;;;;8.37;3.23;;;0.20;99.90;;;;;;5005978;28;20452;-57
2022/02/06 02:50:41;;;;;;;5.33;3.00;;;0.20;99.90;;;;;;5005468;28;20433;-58
2022/02/06 03:00:55;;;;;;;8.73;3.40;;;0.30;99.90;;;;;;5024916;28;20465;-58
2022/02/06 03:03:26;;;;;;;6.90;3.20;;;0.30;99.90;;;;;;4999277;28;20466;-61
2022/02/06 03:05:54;;;;;;;6.73;3.07;;;0.30;99.90;;;;;;5007022;28;20438;-56
2022/02/06 03:08:21;;;;;;;4.30;3.10;;;0.20;99.90;;;;;;5025455;28;20826;-55
2022/02/06 03:10:49;;;;;;;10.87;3.40;;;0.20;99.90;;;;;;5015938;28;20511;-63
2022/02/06 03:13:17;;;;;;;6.93;2.77;;;0.20;99.90;;;;;;5001874;28;20465;-57
2022/02/06 03:16:17;;;;;;;4.80;2.60;;;0.20;99.90;;;;;;5010755;28;20450;-57
2022/02/06 03:18:34;;;;;;;6.60;3.30;;;0.20;99.90;;;;;;5010221;28;20810;-62
2022/02/06 03:21:01;;;;;;;10.93;3.13;;;0.20;99.90;;;;;;5025088;28;20434;-59
2022/02/06 03:23:28;;;;;;;4.27;2.50;;;0.20;99.90;;;;;;4994378;28;20438;-60
2022/02/06 03:25:54;;;;;;;6.40;2.63;;;0.20;99.90;;;;;;5018973;28;20519;-56
2022/02/06 03:28:21;;;;;;;10.33;3.13;;;0.20;99.90;;;;;;5021715;28;20482;-59
2022/02/06 03:30:47;;;;;;;6.87;2.67;;;0.20;99.90;;;;;;5010034;28;20436;-56
2022/02/06 03:33:13;;;;;;;5.70;2.80;;;0.20;99.90;;;;;;5019953;28;20500;-58
2022/02/06 03:35:39;;;;;;;5.50;2.53;;;0.20;99.90;;;;;;5006373;28;20192;-58
2022/02/06 03:38:06;;;;;;;4.70;2.57;;;0.20;99.90;;;;;;5009410;28;20438;-59
2022/02/06 03:40:35;;;;;;;6.20;2.33;;;0.30;99.90;;;;;;4994577;28;20444;-55
2022/02/06 03:43:08;;;;;;;8.53;3.10;;;0.30;99.90;;;;;;4992187;28;20431;-59
2022/02/06 03:48:18;;;;;;;6.03;2.97;;;0.30;99.90;;;;;;4991015;28;20840;-56
2022/02/06 03:50:50;;;;;;;8.80;2.97;;;0.30;99.90;;;;;;5012213;28;20435;-58
2022/02/06 03:53:19;;;;;;;3.70;2.40;;;0.40;99.90;;;;;;5009283;28;20464;-59
2022/02/06 03:55:47;;;;;;;2.93;2.10;;;0.40;99.90;;;;;;5021582;28;20466;-66
2022/02/06 03:58:12;;;;;;;2.97;2.60;;;0.50;99.90;;;;;;5006042;28;20513;-59
2022/02/06 04:00:38;;;;;;;4.57;2.33;;;0.50;99.90;;;;;;5007606;28;20419;-58
2022/02/06 04:03:04;;;;;;;7.63;2.50;;;0.50;99.90;;;;;;5005593;28;20207;-58
2022/02/06 04:05:30;;;;;;;6.70;2.93;;;0.60;99.90;;;;;;4994954;28;20575;-59
2022/02/06 04:07:56;;;;;;;5.53;2.80;;;0.60;99.90;;;;;;5004217;28;20223;-58
2022/02/06 04:10:22;;;;;;;3.90;2.20;;;0.60;99.90;;;;;;5014724;28;20875;-58
2022/02/06 04:12:49;;;;;;;8.90;2.60;;;0.60;99.90;;;;;;5018246;28;20206;-66
2022/02/06 04:15:26;;;;;;;5.23;2.60;;;0.60;99.90;;;;;;5019349;28;20436;-61
2022/02/06 04:18:07;;;;;;;5.73;2.30;;;0.70;99.90;;;;;;5021626;28;20413;-60
2022/02/06 04:20:32;;;;;;;5.93;2.30;;;0.70;99.90;;;;;;5020906;28;20429;-57
2022/02/06 04:22:58;;;;;;;13.57;2.60;;;0.70;99.90;;;;;;5016771;28;20461;-61
2022/02/06 04:25:24;;;;;;;3.27;2.30;;;0.70;99.90;;;;;;5018960;28;20191;-58
2022/02/06 04:27:49;;;;;;;4.50;2.53;;;0.80;99.90;;;;;;5014318;28;20657;-58
2022/02/06 04:30:15;;;;;;;7.30;2.60;;;0.80;99.90;;;;;;5022147;28;20190;-63
2022/02/06 04:32:41;;;;;;;7.80;2.77;;;0.80;99.90;;;;;;5029715;28;20691;-60
2022/02/06 04:35:13;;;;;;;4.13;2.17;;;0.80;99.90;;;;;;5019450;28;20282;-59
2022/02/06 04:37:52;;;;;;;9.83;2.10;;;0.80;99.90;;;;;;5007638;28;20199;-58
2022/02/06 04:41:04;;;;;;;14.97;2.83;;;0.80;99.90;;;;;;5012473;28;20423;-60
2022/02/06 05:15:58;;;;;;;5.53;3.00;;;1.00;99.90;;;;;;5029751;28;20423;-60
2022/02/06 05:22:18;;;;;;;8.00;3.03;;;1.00;99.90;;;;;;4989806;28;20410;-61
2022/02/06 05:24:10;;;;;;;3.43;2.30;;;1.00;99.90;;;;;;5001010;28;20471;-58
2022/02/06 05:34:38;;;;;;;5.00;2.40;;;1.20;99.90;;;;;;4996030;28;20439;-56
2022/02/06 05:37:04;;;;;;;6.50;2.43;;;1.20;99.90;;;;;;5004959;28;20481;-61
2022/02/06 05:39:29;;;;;;;4.87;2.10;;;1.20;99.90;;;;;;5016186;28;20430;-59
2022/02/06 05:41:55;;;;;;;10.67;2.50;;;1.20;99.90;;;;;;5005254;28;20183;-62
2022/02/06 05:44:21;;;;;;;6.67;2.47;;;1.30;99.90;;;;;;4993681;28;20188;-60
2022/02/06 05:46:46;;;;;;;4.43;2.77;;;1.30;99.90;;;;;;5002419;28;20288;-59
2022/02/06 05:49:12;;;;;;;2.93;2.23;;;1.40;99.90;;;;;;5020193;28;20659;-60
2022/02/06 05:51:39;;;;;;;3.87;2.13;;;1.40;99.90;;;;;;5014337;28;20190;-59
2022/02/06 05:54:06;;;;;;;9.70;2.87;;;1.40;99.90;;;;;;5009162;28;20203;-59
2022/02/06 05:56:33;;;;;;;6.77;2.67;;;1.50;99.90;;;;;;5007155;28;20427;-60
2022/02/06 05:58:59;;;;;;;3.30;1.70;;;1.50;99.90;;;;;;4998564;28;20434;-61
2022/02/06 06:01:24;;;;;;;8.73;2.20;;;1.50;99.90;;;;;;5009638;28;21206;-59
2022/02/06 06:03:51;;;;;;;8.27;2.27;;;1.50;99.90;;;;;;4995567;28;20211;-56
2022/02/06 06:06:17;;;;;;;9.57;1.97;;;1.50;99.90;;;;;;4986577;28;20206;-61
2022/02/06 06:08:42;;;;;;;6.00;2.20;;;1.50;99.90;;;;;;5018482;28;20428;-59
2022/02/06 06:11:08;;;;;;;11.20;2.10;;;1.60;99.90;;;;;;5009233;28;20442;-61
2022/02/06 06:13:34;;;;;;;7.00;2.17;;;1.60;99.90;;;;;;5007863;28;20206;-59
2022/02/06 06:16:00;;;;;;;9.23;2.23;;;1.60;99.90;;;;;;5005378;28;20244;-61
2022/02/06 06:18:26;;;;;;;4.53;2.30;;;1.60;99.90;;;;;;5000668;28;20559;-58
2022/02/06 06:20:53;;;;;;;3.50;2.07;;;1.60;99.90;;;;;;5017046;28;20434;-60
2022/02/06 06:23:22;;;;;;;4.73;2.60;;;1.60;99.90;;;;;;5008531;28;20833;-55
2022/02/06 06:25:50;;;;;;;5.23;2.37;;;1.60;99.90;;;;;;5015935;28;21310;-60
2022/02/06 06:28:16;;;;;;;12.63;2.53;;;1.60;99.90;;;;;;4993254;28;20428;-62
2022/02/06 06:30:41;;;;;;;7.07;2.37;;;1.60;99.90;;;;;;5021418;28;20417;-62
2022/02/06 06:33:07;;;;;;;4.60;2.40;;;1.60;99.90;;;;;;5013765;28;20215;-62
2022/02/06 06:35:33;;;;;;;8.70;1.83;;;1.60;99.90;;;;;;5014742;28;20235;-61
2022/02/06 06:38:00;;;;;;;3.87;1.70;;;1.60;99.90;;;;;;5017357;28;20430;-59
2022/02/06 06:40:27;;;;;;;6.57;2.13;;;1.60;99.90;;;;;;5007777;28;20167;-61
2022/02/06 06:42:52;;;;;;;7.57;2.47;;;1.60;99.90;;;;;;5015711;28;20418;-58
2022/02/06 06:45:18;;;;;;;10.27;2.00;;;1.60;99.90;;;;;;5007025;28;20431;-64
2022/02/06 06:47:54;;;;;;;7.07;2.67;;;1.60;99.90;;;;;;5006689;28;20193;-60
2022/02/06 06:50:20;;;;;;;12.87;2.30;;;1.60;99.90;;;;;;5011138;28;20251;-59
2022/02/06 06:52:46;;;;;;;3.27;1.70;;;1.60;99.90;;;;;;4994921;28;20524;-62
2022/02/06 06:55:16;;;;;;;4.60;2.23;;;1.60;99.90;;;;;;5011609;28;20408;-62
2022/02/06 06:57:49;;;;;;;4.80;2.00;;;1.70;99.90;;;;;;5012174;28;20438;-57
2022/02/06 07:00:39;;;;;;;6.07;2.20;;;1.70;99.90;;;;;;4998825;28;20448;-59
2022/02/06 07:03:04;;;;;;;2.50;2.30;;;1.70;99.90;;;;;;5000512;28;20436;-60
2022/02/06 07:05:30;;;;;;;5.80;2.20;;;1.70;99.90;;;;;;5006564;28;20501;-60
2022/02/06 07:07:57;;;;;;;6.67;2.40;;;1.80;99.90;;;;;;4992590;28;20589;-61
2022/02/06 07:10:23;;;;;;;7.13;2.20;;;1.80;99.90;;;;;;4994858;28;20446;-59
2022/02/06 07:12:49;;;;;;;4.00;2.10;;;1.80;99.90;;;;;;5002068;28;20498;-61
2022/02/06 07:15:16;;;;;;;4.40;2.20;;;1.90;99.80;;;;;;4997371;28;20471;-60
2022/02/06 07:17:43;;;;;;;3.13;1.70;;;1.90;99.00;;;;;;4998068;28;20460;-58
2022/02/06 07:20:09;;;;;;;4.27;2.20;;;1.90;98.60;;;;;;5004970;28;20477;-56
2022/02/06 07:22:36;;;;;;;5.17;2.43;;;2.00;98.50;;;;;;5002141;28;20526;-58
2022/02/06 07:25:04;;;;;;;3.93;1.80;;;2.00;98.40;;;;;;4999562;28;20450;-59
2022/02/06 07:27:34;;;;;;;6.73;2.93;;;2.00;98.00;;;;;;4990839;28;20884;-61
2022/02/06 07:30:04;;;;;;;7.80;1.77;;;2.00;97.80;;;;;;5002557;28;20420;-58
2022/02/06 07:32:33;;;;;;;5.70;2.40;;;2.10;96.90;;;;;;5015270;28;20446;-60
2022/02/06 07:34:58;;;;;;;3.50;2.30;;;2.10;96.60;;;;;;4997290;28;20447;-58
2022/02/06 07:37:24;;;;;;;7.60;2.77;;;2.10;96.50;;;;;;4997512;28;20460;-64
2022/02/06 07:39:50;;;;;;;6.20;3.40;;;2.10;96.10;;;;;;4998390;28;20197;-58
2022/02/06 07:42:16;;;;;;;5.63;1.97;;;2.20;96.30;;;;;;5003312;28;20431;-59
2022/02/06 07:44:46;;;;;;;4.50;2.77;;;2.20;95.50;;;;;;5002341;28;20200;-65
2022/02/06 07:47:14;;;;;;;11.03;2.57;;;2.20;94.90;;;;;;5006524;28;20208;-57
2022/02/06 07:49:43;;;;;;;14.93;2.83;;;2.20;94.50;;;;;;5008774;28;20430;-58
2022/02/06 07:52:09;;;;;;;9.93;2.53;;;2.20;94.70;;;;;;5000189;28;20462;-59
2022/02/06 07:54:35;;;;;;;5.57;2.60;;;2.20;94.80;;;;;;5008694;28;20430;-58
2022/02/06 07:57:03;;;;;;;4.77;2.97;;;2.20;94.60;;;;;;5020065;28;20199;-57
2022/02/06 07:59:29;;;;;;;8.77;2.97;;;2.20;94.60;;;;;;5005282;28;20240;-58
2022/02/06 08:01:54;;;;;;;6.43;2.50;;;2.20;95.00;;;;;;5009702;28;20463;-57
2022/02/06 08:04:20;;;;;;;5.10;3.43;;;2.20;94.50;;;;;;5013431;28;20180;-63
2022/02/06 08:06:46;;;;;;;9.33;2.63;;;2.20;94.60;;;;;;5011816;28;20197;-61
2022/02/06 08:09:12;;;;;;;5.23;2.40;;;2.20;94.60;;;;;;5005540;28;20204;-61
2022/02/06 08:11:44;;;;;;;4.70;2.13;;;2.20;94.40;;;;;;5010258;28;20204;-57
2022/02/06 08:14:09;;;;;;;8.80;2.50;;;2.30;94.20;;;;;;5008122;28;20239;-60
2022/02/06 08:16:35;;;;;;;5.50;2.50;;;2.30;94.30;;;;;;4998092;28;20444;-59
2022/02/06 08:19:01;;;;;;;7.60;2.50;;;2.30;95.30;;;;;;5000081;28;20188;-61
2022/02/06 08:21:27;;;;;;;6.83;2.80;;;2.30;95.10;;;;;;5007484;28;20187;-60
2022/02/06 08:23:52;;;;;;;6.10;2.70;;;2.30;94.60;;;;;;5006159;28;20185;-58
2022/02/06 08:26:18;;;;;;;5.27;2.03;;;2.40;94.40;;;;;;4999129;28;20289;-60
2022/02/06 08:28:45;;;;;;;8.67;2.20;;;2.40;93.20;;;;;;5003449;28;20189;-62
2022/02/06 08:31:11;;;;;;;4.03;1.93;;;2.50;91.60;;;;;;4999844;28;20240;-62
2022/02/06 08:33:37;;;;;;;6.03;2.00;;;2.50;91.30;;;;;;5013222;28;20494;-61
2022/02/06 08:36:03;;;;;;;8.37;2.17;;;2.50;91.80;;;;;;5005971;28;20301;-56
2022/02/06 08:38:28;;;;;;;6.07;2.00;;;2.50;91.50;;;;;;5010209;28;20181;-65
2022/02/06 08:40:55;;;;;;;9.27;2.40;;;2.50;91.30;;;;;;5010977;28;20181;-62
2022/02/06 08:43:21;;;;;;;4.27;2.07;;;2.50;91.60;;;;;;5008436;28;20245;-61
2022/02/06 08:45:47;;;;;;;6.77;2.20;;;2.50;91.60;;;;;;5009437;28;20466;-59
2022/02/06 08:48:12;;;;;;;5.43;2.20;;;2.50;91.10;;;;;;5008164;28;20424;-58
2022/02/06 08:50:38;;;;;;;5.37;2.40;;;2.50;90.80;;;;;;5008852;28;20304;-60
2022/02/06 08:53:04;;;;;;;7.57;3.67;;;2.50;91.20;;;;;;5019715;28;20200;-59
2022/02/06 08:55:30;;;;;;;5.90;2.90;;;2.60;91.50;;;;;;5022160;28;20177;-63
2022/02/06 08:57:56;;;;;;;11.07;2.70;;;2.60;91.50;;;;;;5012075;28;20205;-59
2022/02/06 09:00:23;;;;;;;4.93;2.30;;;2.60;90.60;;;;;;5019296;28;20435;-59
2022/02/06 09:02:49;;;;;;;6.00;2.20;;;2.70;90.10;;;;;;5010961;28;20437;-59
2022/02/06 09:05:16;;;;;;;2.87;2.20;;;2.70;90.00;;;;;;5009814;28;20404;-58
2022/02/06 09:07:42;;;;;;;7.40;2.37;;;2.70;90.20;;;;;;5009171;28;20515;-60
2022/02/06 09:10:10;;;;;;;5.10;2.37;;;2.80;90.10;;;;;;5001943;28;20428;-58
2022/02/06 09:12:40;;;;;;;5.60;2.67;;;2.80;89.40;;;;;;5008369;28;20471;-56
2022/02/06 09:15:07;;;;;;;3.30;2.30;;;2.90;89.20;;;;;;5012950;28;20458;-61
2022/02/06 09:17:32;;;;;;;3.83;1.93;;;3.00;86.90;;;;;;5005797;28;20436;-58
2022/02/06 09:19:58;;;;;;;4.60;2.30;;;3.00;87.40;;;;;;5003016;28;20495;-60
2022/02/06 09:22:24;;;;;;;3.60;2.10;;;3.10;84.90;;;;;;5015721;28;20181;-59
2022/02/06 09:24:50;;;;;;;3.23;2.30;;;3.20;83.80;;;;;;5001744;28;20177;-58
2022/02/06 09:27:16;;;;;;;2.90;1.97;;;3.20;82.50;;;;;;5005630;28;20460;-58
2022/02/06 09:29:42;;;;;;;4.50;1.97;;;3.30;82.10;;;;;;4984569;28;20236;-57
2022/02/06 09:37:06;;;;;;;5.40;2.50;;;3.40;81.40;;;;;;5010861;28;20510;-62
2022/02/06 09:39:35;;;;;;;7.87;2.70;;;3.40;80.30;;;;;;5020949;28;20424;-58
2022/02/06 09:42:02;;;;;;;8.60;2.30;;;3.40;79.20;;;;;;5006795;28;20490;-60
2022/02/06 09:44:28;;;;;;;7.43;2.13;;;3.50;79.30;;;;;;5014112;28;20434;-59
2022/02/06 09:46:56;;;;;;;3.43;2.20;;;3.50;79.10;;;;;;5013702;28;20450;-56
2022/02/06 09:49:23;;;;;;;2.70;2.00;;;3.50;78.70;;;;;;5005427;28;20463;-57
2022/02/06 09:51:49;;;;;;;5.13;2.10;;;3.60;78.50;;;;;;5003334;28;20452;-58
2022/02/06 09:54:15;;;;;;;2.67;1.60;;;3.60;78.30;;;;;;5004918;28;20452;-58
2022/02/06 09:56:46;;;;;;;6.60;2.03;;;3.60;78.10;;;;;;4996283;28;20492;-57
2022/02/06 09:59:18;;;;;;;4.37;2.37;;;3.70;77.40;;;;;;4998168;28;20440;-58
2022/02/06 10:01:46;;;;;;;5.30;2.00;;;3.70;76.60;;;;;;4999629;28;20494;-58
2022/02/06 10:04:16;;;;;;;4.23;2.47;;;3.80;75.40;;;;;;4995767;28;20437;-58
2022/02/06 10:06:41;;;;;;;5.73;2.70;;;3.80;75.20;;;;;;5000293;28;20444;-56
2022/02/06 10:09:10;;;;;;;12.57;2.50;;;3.80;74.50;;;;;;4998136;28;20528;-56
2022/02/06 10:11:44;;;;;;;8.83;3.87;;;3.80;74.60;;;;;;4984853;28;20192;-56
2022/02/06 10:14:10;;;;;;;6.67;2.20;;;3.80;75.10;;;;;;5001223;28;20423;-56
2022/02/06 10:16:36;;;;;;;6.10;2.80;;;3.80;74.50;;;;;;5002839;28;20447;-56
2022/02/06 10:19:02;;;;;;;3.60;1.83;;;3.80;74.60;;;;;;5004434;28;20432;-57
2022/02/06 10:21:30;;;;;;;8.70;2.77;;;3.80;74.50;;;;;;5002839;28;20503;-58
2022/02/06 10:24:05;;;;;;;4.03;1.83;;;3.70;74.40;;;;;;5002483;28;20184;-58
2022/02/06 10:31:53;;;;;;;6.03;2.00;;;3.80;74.20;;;;;;4997987;28;20491;-57
2022/02/06 10:34:27;;;;;;;5.60;2.53;;;3.80;74.50;;;;;;5039050;22;20500;-61
2022/02/06 10:37:14;;;;;;;9.13;2.60;;;3.70;74.40;;;;;;5033658;28;20414;-61
2022/02/06 10:40:01;;;;;;;2.93;2.10;;;3.70;74.90;;;;;;5026616;28;20420;-61
2022/02/06 10:42:30;;;;;;;4.70;1.97;;;3.60;74.90;;;;;;5025788;28;20795;-62
2022/02/06 10:45:21;;;;;;;8.87;2.27;;;3.60;75.80;;;;;;5025766;28;20448;-62
2022/02/06 10:47:50;;;;;;;7.03;1.90;;;3.60;76.30;;;;;;5011183;28;20446;-62
2022/02/06 10:50:17;;;;;;;1.87;1.50;;;3.60;77.00;;;;;;5030705;28;20436;-62
2022/02/06 10:52:44;;;;;;;3.10;1.87;;;3.60;77.00;;;;;;5023775;28;20535;-62
2022/02/06 10:55:10;;;;;;;6.67;1.63;;;3.60;77.30;;;;;;5031159;28;20442;-61
2022/02/06 10:57:52;;;;;;;4.30;2.30;;;3.60;78.00;;;;;;5024292;28;20438;-62
2022/02/06 11:00:29;;;;;;;4.53;1.97;;;3.70;78.00;;;;;;5019800;28;20530;-62
2022/02/06 11:03:05;;;;;;;5.10;2.73;;;3.70;77.80;;;;;;5034952;28;20457;-62
2022/02/06 11:05:51;;;;;;;9.23;3.63;;;3.70;78.10;;;;;;5028287;28;20439;-62
2022/02/06 11:08:28;;;;;;;1.93;1.53;;;3.70;78.20;;;;;;5039957;28;20422;-61
2022/02/06 11:11:12;;;;;;;5.83;1.90;;;3.80;78.20;;;;;;5022031;28;20764;-60
2022/02/06 11:13:38;;;;;;;5.53;1.83;;;3.80;77.60;;;;;;5025468;28;20466;-60
2022/02/06 11:16:18;;;;;;;13.20;1.97;;;3.90;77.20;;;;;;5025873;28;20419;-62
2022/02/06 11:18:59;;;;;;;3.40;1.63;;;3.90;76.90;;;;;;5029083;28;20960;-63
2022/02/06 11:21:25;;;;;;;2.00;1.80;;;4.00;76.40;;;;;;5030713;28;20419;-61
2022/02/06 11:23:55;;;;;;;6.30;1.77;;;4.10;75.10;;;;;;5023576;28;20507;-61
2022/02/06 11:26:26;;;;;;;5.60;2.30;;;4.10;75.20;;;;;;5019031;28;20816;-62
2022/02/06 11:28:58;;;;;;;2.80;1.60;;;4.20;74.80;;;;;;5013191;28;20453;-61
2022/02/06 11:31:25;;;;;;;2.63;1.60;;;4.20;73.80;;;;;;5026398;28;20426;-62
2022/02/06 11:33:51;;;;;;;9.83;1.70;;;4.20;73.50;;;;;;5024169;28;20449;-60
2022/02/06 11:42:57;;;;;;;5.00;2.00;;;4.20;73.70;;;;;;5028975;28;20429;-62
2022/02/06 11:45:13;;;;;;;6.20;2.07;;;4.10;73.90;;;;;;5019120;28;20647;-60
2022/02/06 11:47:45;;;;;;;3.73;1.80;;;4.10;74.60;;;;;;5014434;28;20450;-61
2022/02/06 11:50:12;;;;;;;4.00;2.10;;;4.10;74.20;;;;;;5017815;28;20981;-61
2022/02/06 11:52:48;;;;;;;9.97;2.93;;;4.10;74.60;;;;;;5018558;28;20460;-62
2022/02/06 11:55:45;;;;;;;6.27;1.77;;;4.10;75.10;;;;;;5014145;28;20436;-60
2022/02/06 11:58:25;;;;;;;9.63;2.03;;;4.10;75.30;;;;;;5013862;28;20529;-60
2022/02/06 12:01:06;;;;;;;10.87;2.17;;;4.20;75.30;;;;;;5018187;28;20438;-60
2022/02/06 12:03:55;;;;;;;2.30;1.70;;;4.20;75.30;;;;;;5017794;28;20474;-60
2022/02/06 12:06:27;;;;;;;3.70;2.40;;;4.20;75.60;;;;;;5020751;28;20427;-60
2022/02/06 12:08:58;;;;;;;4.50;1.83;;;4.30;75.10;;;;;;5021450;28;20430;-61
2022/02/06 12:11:32;;;;;;;3.20;1.97;;;4.30;74.50;;;;;;5019949;28;20418;-60
2022/02/06 12:14:25;;;;;;;4.60;2.10;;;4.40;74.50;;;;;;5022737;28;20448;-61
2022/02/06 12:17:09;;;;;;;5.87;1.90;;;4.40;74.50;;;;;;5020796;28;21222;-60
2022/02/06 12:19:35;;;;;;;1.90;1.57;;;4.50;74.00;;;;;;5019111;28;20441;-60
2022/02/06 12:22:25;;;;;;;3.40;1.70;;;4.50;73.70;;;;;;5026323;28;20444;-60
2022/02/06 12:24:52;;;;;;;4.33;2.10;;;4.50;73.60;;;;;;5039741;28;20453;-60
2022/02/06 12:27:25;;;;;;;3.50;1.53;;;4.60;72.80;;;;;;5021710;28;20492;-61
2022/02/06 12:30:06;;;;;;;4.10;1.80;;;4.60;71.80;;;;;;5027157;28;20485;-61
2022/02/06 12:32:32;;;;;;;3.73;1.40;;;4.60;71.80;;;;;;5025108;28;21051;-61
2022/02/06 12:37:43;;;;;;;1.50;1.40;;;4.70;71.40;;;;;;5024559;28;20476;-60
2022/02/06 12:40:15;;;;;;;2.50;1.50;;;4.70;71.50;;;;;;5028327;28;20430;-61
2022/02/06 12:42:42;;;;;;;2.77;1.63;;;4.80;71.90;;;;;;5026363;28;20468;-59
2022/02/06 12:45:13;;;;;;;5.70;2.37;;;4.80;71.90;;;;;;5024400;28;20473;-61
2022/02/06 12:47:45;;;;;;;2.60;2.23;;;4.90;71.00;;;;;;5025772;28;20496;-59
2022/02/06 12:50:16;;;;;;;7.30;2.30;;;4.90;71.10;;;;;;5022162;28;20871;-60
2022/02/06 12:52:41;;;;;;;3.00;2.70;;;4.90;71.10;;;;;;5022908;28;20958;-58
2022/02/06 12:55:09;;;;;;;4.90;1.80;;;4.90;71.20;;;;;;5019209;28;20442;-60
2022/02/06 12:57:44;;;;;;;1.60;1.50;;;5.00;71.30;;;;;;5021074;28;20211;-61
2022/02/06 13:00:22;;;;;;;3.00;1.70;;;5.00;70.50;;;;;;5019550;28;20442;-60
2022/02/06 13:02:48;;;;;;;1.80;1.70;;;5.00;70.80;;;;;;5025191;28;20814;-60
2022/02/06 13:05:14;;;;;;;3.30;1.70;;;5.10;70.90;;;;;;5021871;28;20442;-61
2022/02/06 13:07:45;;;;;;;2.07;1.10;;;5.10;70.70;;;;;;5026566;28;20542;-61
2022/02/06 13:10:12;;;;;;;2.33;1.60;;;5.10;70.10;;;;;;5026736;28;20959;-61
2022/02/06 13:12:44;;;;;;;;;;;;;;;;;;;;;
2022/02/06 13:23:15;;;;;;;1.43;1.33;;;5.10;68.50;;;;;;5025287;28;21198;-61
2022/02/06 13:25:57;;;;;;;1.50;1.40;;;5.20;68.50;;;;;;5019401;28;20208;-62
2022/02/06 13:36:43;;;;;;;2.47;1.47;;;5.20;68.80;;;;;;5026168;28;20473;-59
2022/02/06 13:39:24;;;;;;;3.40;1.20;;;5.30;69.50;;;;;;5023312;28;20438;-63
2022/02/06 13:41:51;;;;;;;4.27;1.30;;;5.30;68.80;;;;;;5018120;28;20445;-60
2022/02/06 13:44:21;;;;;;;1.77;1.53;;;5.30;68.40;;;;;;5024261;28;21040;-59
2022/02/06 13:46:47;;;;;;;3.10;1.60;;;5.30;68.40;;;;;;5025061;28;21301;-59
2022/02/06 13:49:13;;;;;;;4.30;1.20;;;5.20;68.10;;;;;;5019439;28;20439;-59
2022/02/06 13:51:51;;;;;;;1.07;1.07;;;5.20;69.00;;;;;;5025739;28;20842;-59
2022/02/06 13:54:19;;;;;;;4.40;2.40;;;5.20;69.00;;;;;;5034710;28;21258;-59
2022/02/06 13:56:54;;;;;;;1.97;1.47;;;5.20;69.30;;;;;;5026108;28;20438;-57
2022/02/06 13:59:22;;;;;;;3.90;1.57;;;5.20;69.10;;;;;;5021520;28;20572;-58
2022/02/06 14:01:53;;;;;;;2.20;1.60;;;5.30;69.10;;;;;;5026850;28;20445;-59
2022/02/06 14:04:20;;;;;;;2.93;1.33;;;5.30;69.20;;;;;;5024066;28;20477;-59
2022/02/06 14:06:55;;;;;;;1.23;1.13;;;5.30;69.80;;;;;;5025422;28;20815;-60
2022/02/06 14:09:44;;;;;;;1.50;1.40;;;5.20;70.10;;;;;;5021110;28;21045;-60
2022/02/06 14:12:20;;;;;;;1.30;1.20;;;5.20;71.10;;;;;;5032601;28;20465;-64
2022/02/06 14:14:54;;;;;;;3.00;1.50;;;5.20;71.50;;;;;;5056264;28;20453;-60
2022/02/06 14:17:35;;;;;;;1.83;1.30;;;5.20;72.60;;;;;;5042775;28;20523;-60
2022/02/06 14:20:12;;;;;;;2.40;1.10;;;5.20;74.40;;;;;;5024170;28;20445;-60
2022/02/06 14:22:47;;;;;;;1.67;1.40;;;5.20;74.40;;;;;;5030238;28;20584;-60
2022/02/06 14:25:26;;;;;;;4.07;1.17;;;5.10;75.30;;;;;;5023862;28;20438;-60
2022/02/06 14:27:53;;;;;;;1.30;1.20;;;5.10;76.20;;;;;;5021359;28;20497;-61
2022/02/06 14:30:21;;;;;;;1.80;1.33;;;5.10;77.70;;;;;;5024380;28;21478;-60
2022/02/06 14:33:33;;;;;;;1.77;1.30;;;5.10;78.80;;;;;;5024137;28;20473;-60
2022/02/06 14:36:07;;;;;;;1.57;1.43;;;5.10;81.30;;;;;;5000071;28;20446;-61
2022/02/06 14:38:41;;;;;;;1.47;1.27;;;5.00;82.50;;;;;;5021382;28;20462;-60
2022/02/06 14:44:04;;;;;;;2.20;1.27;;;4.90;88.50;;;;;;5021719;28;20997;-61
2022/02/06 14:46:32;;;;;;;2.63;1.73;;;4.90;90.80;;;;;;5025360;28;20563;-60
2022/02/06 14:48:59;;;;;;;1.47;1.37;;;4.80;92.20;;;;;;5017978;28;20438;-60
2022/02/06 14:51:26;;;;;;;2.20;1.50;;;4.80;93.70;;;;;;5025342;28;20430;-60
2022/02/06 14:53:59;;;;;;;3.03;1.50;;;4.80;94.60;;;;;;5022670;28;20462;-60
2022/02/06 14:56:36;;;;;;;1.80;1.40;;;4.70;95.10;;;;;;5023556;28;20569;-60
2022/02/06 14:59:03;;;;;;;4.60;1.73;;;4.70;96.90;;;;;;5022686;28;20836;-60
2022/02/06 15:01:29;;;;;;;3.43;1.20;;;4.60;98.50;;;;;;5021042;28;20567;-60
2022/02/06 15:03:55;;;;;;;2.57;1.43;;;4.60;99.80;;;;;;5039144;28;20446;-60
2022/02/06 15:06:21;;;;;;;1.43;1.33;;;4.50;99.90;;;;;;5025123;28;20426;-59
2022/02/06 15:08:47;;;;;;;4.10;2.07;;;4.40;99.90;;;;;;5028131;28;20965;-61
2022/02/06 15:11:13;;;;;;;2.93;1.80;;;4.40;99.90;;;;;;5025148;28;20437;-60
2022/02/06 15:13:39;;;;;;;5.17;2.10;;;4.30;99.90;;;;;;5024527;28;20463;-61
2022/02/06 15:16:12;;;;;;;3.93;2.03;;;4.30;99.90;;;;;;5027744;28;20195;-58
2022/02/06 15:18:40;;;;;;;1.60;1.50;;;4.20;99.90;;;;;;5024497;28;20172;-60
2022/02/06 15:21:08;;;;;;;1.60;1.50;;;4.20;99.90;;;;;;5023785;28;20416;-60
2022/02/06 15:23:34;;;;;;;2.27;1.77;;;4.20;99.90;;;;;;5024802;28;21002;-60
2022/02/06 15:26:00;;;;;;;2.83;1.47;;;4.10;99.90;;;;;;5026251;28;20431;-60
2022/02/06 15:28:26;;;;;;;1.87;1.50;;;4.10;99.90;;;;;;5026688;28;20968;-58
2022/02/06 15:30:53;;;;;;;3.97;2.07;;;4.10;99.90;;;;;;5030934;28;20185;-61
2022/02/06 15:33:19;;;;;;;1.90;1.57;;;4.00;99.90;;;;;;5027695;28;20864;-60
2022/02/06 15:35:45;;;;;;;2.93;1.50;;;4.00;99.90;;;;;;5026389;28;20430;-61
2022/02/06 15:38:11;;;;;;;3.73;1.30;;;4.00;99.90;;;;;;5027821;28;20416;-60
2022/02/06 15:40:38;;;;;;;2.73;1.60;;;4.00;99.90;;;;;;5022449;28;20413;-60
2022/02/06 15:43:06;;;;;;;2.10;1.80;;;4.00;99.90;;;;;;5021102;28;21928;-60
2022/02/06 15:45:33;;;;;;;3.20;1.60;;;4.00;99.90;;;;;;5028628;28;20825;-60
2022/02/06 15:47:59;;;;;;;3.23;1.40;;;3.90;99.90;;;;;;5029239;28;20481;-61
2022/02/06 15:50:25;;;;;;;2.20;1.80;;;3.90;99.90;;;;;;5024173;28;20480;-61
2022/02/06 15:52:51;;;;;;;4.20;1.60;;;3.90;99.90;;;;;;5026633;28;20874;-61